sensor_id;sensor_type;location;lat;lon;timestamp;P1;durP1;ratioP1;P2;durP2;ratioP2
41865;SDS011;27539;43.222;27.558;2022-09-09T05:14:46;4.43;;;2.53;;
41865;SDS011;27539;43.222;27.558;2022-09-09T05:20:27;3.53;;;3.08;;
41865;SDS011;27539;43.222;27.558;2022-09-09T05:22:59;2.33;;;2.17;;
41865;SDS011;27539;43.222;27.558;2022-09-09T05:25:55;2.97;;;2.28;;
41865;SDS011;27539;43.222;27.558;2022-09-09T05:28:30;8.70;;;3.75;;
41865;SDS011;27539;43.222;27.558;2022-09-09T05:34:25;6.78;;;3.90;;
41865;SDS011;27539;43.222;27.558;2022-09-09T05:36:52;7.83;;;2.03;;
41865;SDS011;27539;43.222;27.558;2022-09-09T05:39:17;3.80;;;2.88;;
41865;SDS011;27539;43.222;27.558;2022-09-09T05:41:43;8.75;;;1.65;;
41865;SDS011;27539;43.222;27.558;2022-09-09T05:44:09;1.88;;;1.55;;
41865;SDS011;27539;43.222;27.558;2022-09-09T05:46:34;0.63;;;0.63;;
41865;SDS011;27539;43.222;27.558;2022-09-09T05:49:01;0.75;;;0.75;;
41865;SDS011;27539;43.222;27.558;2022-09-09T05:51:27;4.18;;;1.40;;
41865;SDS011;27539;43.222;27.558;2022-09-09T05:53:57;0.45;;;0.45;;
41865;SDS011;27539;43.222;27.558;2022-09-09T05:56:27;0.90;;;0.77;;
41865;SDS011;27539;43.222;27.558;2022-09-09T05:58:54;0.30;;;0.30;;
41865;SDS011;27539;43.222;27.558;2022-09-09T06:01:21;0.05;;;0.05;;
41865;SDS011;27539;43.222;27.558;2022-09-09T06:03:49;0.13;;;0.13;;
41865;SDS011;27539;43.222;27.558;2022-09-09T06:06:16;1.02;;;1.00;;
41865;SDS011;27539;43.222;27.558;2022-09-09T06:08:47;0.00;;;0.00;;
41865;SDS011;27539;43.222;27.558;2022-09-09T06:11:19;0.10;;;0.03;;
41865;SDS011;27539;43.222;27.558;2022-09-09T06:13:47;0.00;;;0.00;;
41865;SDS011;27539;43.222;27.558;2022-09-09T06:16:14;0.40;;;0.40;;
41865;SDS011;27539;43.222;27.558;2022-09-09T06:18:41;0.30;;;0.30;;
41865;SDS011;27539;43.222;27.558;2022-09-09T06:21:09;0.10;;;0.10;;
41865;SDS011;27539;43.222;27.558;2022-09-09T06:23:56;0.00;;;0.00;;
41865;SDS011;27539;43.222;27.558;2022-09-09T06:26:26;0.10;;;0.10;;
41865;SDS011;27539;43.222;27.558;2022-09-09T06:28:56;0.00;;;0.00;;
41865;SDS011;27539;43.222;27.558;2022-09-09T06:31:24;0.30;;;0.20;;
41865;SDS011;27539;43.222;27.558;2022-09-09T06:33:53;0.03;;;0.03;;
41865;SDS011;27539;43.222;27.558;2022-09-09T06:36:21;0.22;;;0.22;;
41865;SDS011;27539;43.222;27.558;2022-09-09T06:38:51;0.10;;;0.10;;
41865;SDS011;27539;43.222;27.558;2022-09-09T06:41:18;0.20;;;0.20;;
41865;SDS011;27539;43.222;27.558;2022-09-09T06:43:45;0.20;;;0.20;;
41865;SDS011;27539;43.222;27.558;2022-09-09T06:46:12;0.10;;;0.10;;
41865;SDS011;27539;43.222;27.558;2022-09-09T06:48:40;1.73;;;0.55;;
41865;SDS011;27539;43.222;27.558;2022-09-09T06:51:14;1.02;;;0.60;;
41865;SDS011;27539;43.222;27.558;2022-09-09T06:53:44;0.10;;;0.10;;
41865;SDS011;27539;43.222;27.558;2022-09-09T07:01:03;0.20;;;0.20;;
41865;SDS011;27539;43.222;27.558;2022-09-09T07:03:30;0.20;;;0.20;;
41865;SDS011;27539;43.222;27.558;2022-09-09T07:05:56;0.00;;;0.00;;
41865;SDS011;27539;43.222;27.558;2022-09-09T07:08:22;0.10;;;0.10;;
41865;SDS011;27539;43.222;27.558;2022-09-09T07:10:47;0.43;;;0.37;;
41865;SDS011;27539;43.222;27.558;2022-09-09T07:13:13;0.00;;;0.00;;
41865;SDS011;27539;43.222;27.558;2022-09-09T07:15:41;0.10;;;0.10;;
41865;SDS011;27539;43.222;27.558;2022-09-09T07:18:07;0.15;;;0.15;;
41865;SDS011;27539;43.222;27.558;2022-09-09T07:20:34;0.10;;;0.10;;
41865;SDS011;27539;43.222;27.558;2022-09-09T07:22:59;0.10;;;0.10;;
41865;SDS011;27539;43.222;27.558;2022-09-09T07:25:25;0.10;;;0.10;;
41865;SDS011;27539;43.222;27.558;2022-09-09T07:27:53;0.38;;;0.10;;
41865;SDS011;27539;43.222;27.558;2022-09-09T07:30:20;0.13;;;0.13;;
41865;SDS011;27539;43.222;27.558;2022-09-09T07:32:46;0.30;;;0.30;;
41865;SDS011;27539;43.222;27.558;2022-09-09T07:35:11;0.53;;;0.50;;
41865;SDS011;27539;43.222;27.558;2022-09-09T07:37:37;0.10;;;0.10;;
41865;SDS011;27539;43.222;27.558;2022-09-09T07:40:03;0.03;;;0.03;;
41865;SDS011;27539;43.222;27.558;2022-09-09T07:42:30;0.00;;;0.00;;
41865;SDS011;27539;43.222;27.558;2022-09-09T07:44:55;0.20;;;0.20;;
41865;SDS011;27539;43.222;27.558;2022-09-09T07:47:21;0.10;;;0.10;;
41865;SDS011;27539;43.222;27.558;2022-09-09T07:49:47;0.10;;;0.10;;
41865;SDS011;27539;43.222;27.558;2022-09-09T07:52:14;0.20;;;0.20;;
41865;SDS011;27539;43.222;27.558;2022-09-09T07:54:41;0.00;;;0.00;;
41865;SDS011;27539;43.222;27.558;2022-09-09T07:57:07;0.10;;;0.10;;
41865;SDS011;27539;43.222;27.558;2022-09-09T07:59:33;0.10;;;0.10;;
41865;SDS011;27539;43.222;27.558;2022-09-09T08:01:58;0.00;;;0.00;;
41865;SDS011;27539;43.222;27.558;2022-09-09T08:04:24;0.33;;;0.33;;
41865;SDS011;27539;43.222;27.558;2022-09-09T08:09:18;0.20;;;0.20;;
41865;SDS011;27539;43.222;27.558;2022-09-09T08:11:44;0.10;;;0.10;;
41865;SDS011;27539;43.222;27.558;2022-09-09T08:14:10;0.30;;;0.30;;
41865;SDS011;27539;43.222;27.558;2022-09-09T08:16:38;0.10;;;0.10;;
41865;SDS011;27539;43.222;27.558;2022-09-09T08:19:06;0.35;;;0.22;;
41865;SDS011;27539;43.222;27.558;2022-09-09T08:21:33;0.08;;;0.08;;
41865;SDS011;27539;43.222;27.558;2022-09-09T08:24:01;1.00;;;0.52;;
41865;SDS011;27539;43.222;27.558;2022-09-09T08:26:31;0.20;;;0.20;;
41865;SDS011;27539;43.222;27.558;2022-09-09T08:29:02;0.10;;;0.10;;
41865;SDS011;27539;43.222;27.558;2022-09-09T08:31:30;0.00;;;0.00;;
41865;SDS011;27539;43.222;27.558;2022-09-09T08:33:58;0.30;;;0.30;;
41865;SDS011;27539;43.222;27.558;2022-09-09T08:36:25;0.20;;;0.20;;
41865;SDS011;27539;43.222;27.558;2022-09-09T08:38:53;0.20;;;0.20;;
41865;SDS011;27539;43.222;27.558;2022-09-09T08:44:07;0.10;;;0.10;;
41865;SDS011;27539;43.222;27.558;2022-09-09T08:49:47;0.30;;;0.30;;
41865;SDS011;27539;43.222;27.558;2022-09-09T08:58:16;0.08;;;0.08;;
41865;SDS011;27539;43.222;27.558;2022-09-09T09:11:38;0.20;;;0.20;;
41865;SDS011;27539;43.222;27.558;2022-09-09T09:16:59;0.20;;;0.20;;
41865;SDS011;27539;43.222;27.558;2022-09-09T09:19:27;0.10;;;0.10;;
41865;SDS011;27539;43.222;27.558;2022-09-09T09:27:14;0.00;;;0.00;;
41865;SDS011;27539;43.222;27.558;2022-09-09T09:29:43;0.55;;;0.30;;
41865;SDS011;27539;43.222;27.558;2022-09-09T09:32:14;0.10;;;0.10;;
41865;SDS011;27539;43.222;27.558;2022-09-09T09:34:48;0.05;;;0.05;;
41865;SDS011;27539;43.222;27.558;2022-09-09T09:37:17;0.00;;;0.00;;
41865;SDS011;27539;43.222;27.558;2022-09-09T09:40:11;0.38;;;0.25;;
41865;SDS011;27539;43.222;27.558;2022-09-09T09:42:52;0.13;;;0.13;;
41865;SDS011;27539;43.222;27.558;2022-09-09T09:48:01;0.10;;;0.10;;
41865;SDS011;27539;43.222;27.558;2022-09-09T09:50:28;0.10;;;0.10;;
41865;SDS011;27539;43.222;27.558;2022-09-09T09:52:55;0.00;;;0.00;;
41865;SDS011;27539;43.222;27.558;2022-09-09T09:55:23;0.00;;;0.00;;
41865;SDS011;27539;43.222;27.558;2022-09-09T09:57:49;0.10;;;0.10;;
41865;SDS011;27539;43.222;27.558;2022-09-09T10:00:17;0.10;;;0.10;;
41865;SDS011;27539;43.222;27.558;2022-09-09T10:02:45;0.10;;;0.10;;
41865;SDS011;27539;43.222;27.558;2022-09-09T10:05:22;0.15;;;0.15;;
41865;SDS011;27539;43.222;27.558;2022-09-09T10:13:20;0.00;;;0.00;;
41865;SDS011;27539;43.222;27.558;2022-09-09T10:21:42;0.00;;;0.00;;
41865;SDS011;27539;43.222;27.558;2022-09-09T10:27:11;0.17;;;0.17;;
41865;SDS011;27539;43.222;27.558;2022-09-09T10:29:45;0.00;;;0.00;;
41865;SDS011;27539;43.222;27.558;2022-09-09T10:40:43;0.10;;;0.10;;
41865;SDS011;27539;43.222;27.558;2022-09-09T10:51:37;0.00;;;0.00;;
41865;SDS011;27539;43.222;27.558;2022-09-09T10:56:51;0.00;;;0.00;;
41865;SDS011;27539;43.222;27.558;2022-09-09T10:59:29;0.00;;;0.00;;
41865;SDS011;27539;43.222;27.558;2022-09-09T11:02:45;0.00;;;0.00;;
41865;SDS011;27539;43.222;27.558;2022-09-09T11:10:19;0.10;;;0.10;;
41865;SDS011;27539;43.222;27.558;2022-09-09T11:12:46;0.10;;;0.10;;
41865;SDS011;27539;43.222;27.558;2022-09-09T11:15:24;0.20;;;0.20;;
41865;SDS011;27539;43.222;27.558;2022-09-09T11:18:01;0.00;;;0.00;;
41865;SDS011;27539;43.222;27.558;2022-09-09T11:20:29;0.10;;;0.10;;
41865;SDS011;27539;43.222;27.558;2022-09-09T11:23:04;0.40;;;0.40;;
41865;SDS011;27539;43.222;27.558;2022-09-09T11:25:57;0.08;;;0.08;;
41865;SDS011;27539;43.222;27.558;2022-09-09T11:41:34;0.08;;;0.08;;
41865;SDS011;27539;43.222;27.558;2022-09-09T11:44:09;0.00;;;0.00;;
41865;SDS011;27539;43.222;27.558;2022-09-09T11:46:38;0.10;;;0.10;;
41865;SDS011;27539;43.222;27.558;2022-09-09T11:49:21;0.10;;;0.10;;
41865;SDS011;27539;43.222;27.558;2022-09-09T11:51:51;0.10;;;0.10;;
41865;SDS011;27539;43.222;27.558;2022-09-09T11:54:28;0.10;;;0.10;;
41865;SDS011;27539;43.222;27.558;2022-09-09T11:57:04;0.00;;;0.00;;
41865;SDS011;27539;43.222;27.558;2022-09-09T11:59:49;0.32;;;0.15;;
41865;SDS011;27539;43.222;27.558;2022-09-09T12:02:24;0.13;;;0.10;;
41865;SDS011;27539;43.222;27.558;2022-09-09T12:05:02;0.08;;;0.03;;
41865;SDS011;27539;43.222;27.558;2022-09-09T12:12:47;0.75;;;0.75;;
41865;SDS011;27539;43.222;27.558;2022-09-09T12:17:41;0.20;;;0.20;;
41865;SDS011;27539;43.222;27.558;2022-09-09T12:20:21;0.10;;;0.10;;
41865;SDS011;27539;43.222;27.558;2022-09-09T12:25:36;0.00;;;0.00;;
41865;SDS011;27539;43.222;27.558;2022-09-09T12:33:17;0.00;;;0.00;;
41865;SDS011;27539;43.222;27.558;2022-09-09T12:35:44;0.10;;;0.10;;
41865;SDS011;27539;43.222;27.558;2022-09-09T12:38:26;0.20;;;0.20;;
41865;SDS011;27539;43.222;27.558;2022-09-09T12:41:03;0.32;;;0.28;;
41865;SDS011;27539;43.222;27.558;2022-09-09T12:43:29;0.83;;;0.20;;
41865;SDS011;27539;43.222;27.558;2022-09-09T12:45:56;0.10;;;0.10;;
41865;SDS011;27539;43.222;27.558;2022-09-09T12:48:28;0.28;;;0.28;;
41865;SDS011;27539;43.222;27.558;2022-09-09T12:50:57;0.10;;;0.10;;
41865;SDS011;27539;43.222;27.558;2022-09-09T12:53:25;0.20;;;0.20;;
41865;SDS011;27539;43.222;27.558;2022-09-09T12:55:56;0.10;;;0.10;;
41865;SDS011;27539;43.222;27.558;2022-09-09T12:58:24;1.10;;;0.35;;
41865;SDS011;27539;43.222;27.558;2022-09-09T13:00:53;0.40;;;0.40;;
41865;SDS011;27539;43.222;27.558;2022-09-09T13:03:23;0.10;;;0.10;;
41865;SDS011;27539;43.222;27.558;2022-09-09T13:05:50;0.73;;;0.13;;
41865;SDS011;27539;43.222;27.558;2022-09-09T13:08:17;0.17;;;0.17;;
41865;SDS011;27539;43.222;27.558;2022-09-09T13:13:30;0.00;;;0.00;;
41865;SDS011;27539;43.222;27.558;2022-09-09T13:16:01;0.00;;;0.00;;
41865;SDS011;27539;43.222;27.558;2022-09-09T13:18:40;0.00;;;0.00;;
41865;SDS011;27539;43.222;27.558;2022-09-09T13:21:07;0.10;;;0.10;;
41865;SDS011;27539;43.222;27.558;2022-09-09T13:23:33;0.00;;;0.00;;
41865;SDS011;27539;43.222;27.558;2022-09-09T13:26:02;0.20;;;0.20;;
41865;SDS011;27539;43.222;27.558;2022-09-09T13:28:31;0.10;;;0.10;;
41865;SDS011;27539;43.222;27.558;2022-09-09T13:30:59;0.00;;;0.00;;
41865;SDS011;27539;43.222;27.558;2022-09-09T13:33:32;0.13;;;0.13;;
41865;SDS011;27539;43.222;27.558;2022-09-09T13:36:06;17.40;;;0.90;;
41865;SDS011;27539;43.222;27.558;2022-09-09T13:38:40;0.13;;;0.13;;
41865;SDS011;27539;43.222;27.558;2022-09-09T13:41:20;0.13;;;0.13;;
41865;SDS011;27539;43.222;27.558;2022-09-09T13:43:48;0.10;;;0.10;;
41865;SDS011;27539;43.222;27.558;2022-09-09T13:49:02;0.22;;;0.22;;
41865;SDS011;27539;43.222;27.558;2022-09-09T13:51:35;0.00;;;0.00;;
41865;SDS011;27539;43.222;27.558;2022-09-09T13:54:06;0.22;;;0.22;;
41865;SDS011;27539;43.222;27.558;2022-09-09T13:56:35;0.10;;;0.10;;
41865;SDS011;27539;43.222;27.558;2022-09-09T13:59:02;1.95;;;0.75;;
41865;SDS011;27539;43.222;27.558;2022-09-09T14:01:29;0.00;;;0.00;;
41865;SDS011;27539;43.222;27.558;2022-09-09T14:03:56;0.10;;;0.10;;
41865;SDS011;27539;43.222;27.558;2022-09-09T14:06:22;0.10;;;0.10;;
41865;SDS011;27539;43.222;27.558;2022-09-09T14:08:51;0.25;;;0.25;;
41865;SDS011;27539;43.222;27.558;2022-09-09T14:11:17;0.25;;;0.25;;
41865;SDS011;27539;43.222;27.558;2022-09-09T14:13:43;0.00;;;0.00;;
41865;SDS011;27539;43.222;27.558;2022-09-09T14:16:09;0.10;;;0.10;;
41865;SDS011;27539;43.222;27.558;2022-09-09T14:18:35;0.20;;;0.13;;
41865;SDS011;27539;43.222;27.558;2022-09-09T14:21:00;0.33;;;0.33;;
41865;SDS011;27539;43.222;27.558;2022-09-09T14:23:27;0.10;;;0.10;;
41865;SDS011;27539;43.222;27.558;2022-09-09T14:25:52;0.30;;;0.30;;
41865;SDS011;27539;43.222;27.558;2022-09-09T14:28:18;0.10;;;0.10;;
41865;SDS011;27539;43.222;27.558;2022-09-09T14:30:43;0.10;;;0.10;;
41865;SDS011;27539;43.222;27.558;2022-09-09T14:33:10;0.00;;;0.00;;
41865;SDS011;27539;43.222;27.558;2022-09-09T14:35:37;1.80;;;0.45;;
41865;SDS011;27539;43.222;27.558;2022-09-09T14:38:04;0.10;;;0.10;;
41865;SDS011;27539;43.222;27.558;2022-09-09T14:40:29;0.10;;;0.10;;
41865;SDS011;27539;43.222;27.558;2022-09-09T14:42:55;0.27;;;0.27;;
41865;SDS011;27539;43.222;27.558;2022-09-09T14:45:21;0.30;;;0.30;;
41865;SDS011;27539;43.222;27.558;2022-09-09T14:47:51;0.05;;;0.05;;
41865;SDS011;27539;43.222;27.558;2022-09-09T14:50:17;0.10;;;0.10;;
41865;SDS011;27539;43.222;27.558;2022-09-09T14:55:09;0.40;;;0.40;;
41865;SDS011;27539;43.222;27.558;2022-09-09T14:57:34;0.60;;;0.60;;
41865;SDS011;27539;43.222;27.558;2022-09-09T15:00:01;0.20;;;0.20;;
41865;SDS011;27539;43.222;27.558;2022-09-09T15:02:28;0.70;;;0.47;;
41865;SDS011;27539;43.222;27.558;2022-09-09T15:04:55;0.15;;;0.15;;
41865;SDS011;27539;43.222;27.558;2022-09-09T15:07:23;0.25;;;0.25;;
41865;SDS011;27539;43.222;27.558;2022-09-09T15:09:49;2.00;;;0.43;;
41865;SDS011;27539;43.222;27.558;2022-09-09T15:12:15;1.20;;;0.97;;
41865;SDS011;27539;43.222;27.558;2022-09-09T15:14:43;0.20;;;0.20;;
41865;SDS011;27539;43.222;27.558;2022-09-09T15:17:09;11.63;;;1.13;;
41865;SDS011;27539;43.222;27.558;2022-09-09T15:19:35;5.80;;;1.00;;
41865;SDS011;27539;43.222;27.558;2022-09-09T15:22:01;0.88;;;0.80;;
41865;SDS011;27539;43.222;27.558;2022-09-09T15:24:27;0.20;;;0.20;;
41865;SDS011;27539;43.222;27.558;2022-09-09T15:26:53;0.10;;;0.10;;
41865;SDS011;27539;43.222;27.558;2022-09-09T15:29:19;0.50;;;0.50;;
41865;SDS011;27539;43.222;27.558;2022-09-09T15:31:44;2.83;;;1.03;;
41865;SDS011;27539;43.222;27.558;2022-09-09T15:34:10;0.70;;;0.70;;
41865;SDS011;27539;43.222;27.558;2022-09-09T15:36:40;1.63;;;0.77;;
41865;SDS011;27539;43.222;27.558;2022-09-09T15:39:10;0.80;;;0.65;;
41865;SDS011;27539;43.222;27.558;2022-09-09T15:41:40;0.25;;;0.25;;
41865;SDS011;27539;43.222;27.558;2022-09-09T15:44:06;0.20;;;0.20;;
41865;SDS011;27539;43.222;27.558;2022-09-09T15:46:33;0.10;;;0.10;;
41865;SDS011;27539;43.222;27.558;2022-09-09T15:49:36;1.00;;;0.20;;
41865;SDS011;27539;43.222;27.558;2022-09-09T15:51:56;0.30;;;0.22;;
41865;SDS011;27539;43.222;27.558;2022-09-09T15:54:28;0.35;;;0.35;;
41865;SDS011;27539;43.222;27.558;2022-09-09T15:56:58;0.10;;;0.10;;
41865;SDS011;27539;43.222;27.558;2022-09-09T15:59:25;0.10;;;0.10;;
41865;SDS011;27539;43.222;27.558;2022-09-09T16:01:52;0.38;;;0.38;;
41865;SDS011;27539;43.222;27.558;2022-09-09T16:04:19;0.10;;;0.10;;
41865;SDS011;27539;43.222;27.558;2022-09-09T16:06:53;1.23;;;0.70;;
41865;SDS011;27539;43.222;27.558;2022-09-09T16:09:23;0.10;;;0.10;;
41865;SDS011;27539;43.222;27.558;2022-09-09T16:11:49;0.10;;;0.10;;
41865;SDS011;27539;43.222;27.558;2022-09-09T16:14:15;0.45;;;0.38;;
41865;SDS011;27539;43.222;27.558;2022-09-09T16:16:41;1.87;;;0.57;;
41865;SDS011;27539;43.222;27.558;2022-09-09T16:19:08;0.32;;;0.32;;
41865;SDS011;27539;43.222;27.558;2022-09-09T16:21:37;0.10;;;0.10;;
41865;SDS011;27539;43.222;27.558;2022-09-09T16:24:05;2.25;;;0.60;;
41865;SDS011;27539;43.222;27.558;2022-09-09T16:28:58;0.15;;;0.15;;
41865;SDS011;27539;43.222;27.558;2022-09-09T16:31:25;0.15;;;0.10;;
41865;SDS011;27539;43.222;27.558;2022-09-09T16:33:51;9.15;;;1.98;;
41865;SDS011;27539;43.222;27.558;2022-09-09T16:36:24;2.50;;;0.63;;
41865;SDS011;27539;43.222;27.558;2022-09-09T16:38:54;0.47;;;0.47;;
41865;SDS011;27539;43.222;27.558;2022-09-09T16:41:22;0.43;;;0.38;;
41865;SDS011;27539;43.222;27.558;2022-09-09T16:43:58;22.92;;;2.97;;
41865;SDS011;27539;43.222;27.558;2022-09-09T16:46:27;2.65;;;1.10;;
41865;SDS011;27539;43.222;27.558;2022-09-09T16:48:56;0.47;;;0.43;;
41865;SDS011;27539;43.222;27.558;2022-09-09T16:51:28;0.63;;;0.57;;
41865;SDS011;27539;43.222;27.558;2022-09-09T16:53:55;1.17;;;1.08;;
41865;SDS011;27539;43.222;27.558;2022-09-09T16:56:25;1.48;;;1.38;;
41865;SDS011;27539;43.222;27.558;2022-09-09T16:58:53;1.33;;;0.93;;
41865;SDS011;27539;43.222;27.558;2022-09-09T17:01:21;2.95;;;1.83;;
41865;SDS011;27539;43.222;27.558;2022-09-09T17:03:56;3.20;;;1.55;;
41865;SDS011;27539;43.222;27.558;2022-09-09T17:06:28;1.75;;;1.15;;
41865;SDS011;27539;43.222;27.558;2022-09-09T17:08:55;2.20;;;1.90;;
41865;SDS011;27539;43.222;27.558;2022-09-09T17:11:22;0.32;;;0.32;;
41865;SDS011;27539;43.222;27.558;2022-09-09T17:13:48;1.83;;;1.50;;
41865;SDS011;27539;43.222;27.558;2022-09-09T17:16:16;0.50;;;0.50;;
41865;SDS011;27539;43.222;27.558;2022-09-09T17:18:42;0.90;;;0.82;;
41865;SDS011;27539;43.222;27.558;2022-09-09T17:21:09;1.30;;;1.20;;
41865;SDS011;27539;43.222;27.558;2022-09-09T17:23:39;1.85;;;1.17;;
41865;SDS011;27539;43.222;27.558;2022-09-09T17:26:06;2.25;;;1.00;;
41865;SDS011;27539;43.222;27.558;2022-09-09T17:28:33;2.97;;;1.75;;
41865;SDS011;27539;43.222;27.558;2022-09-09T17:31:00;0.30;;;0.30;;
41865;SDS011;27539;43.222;27.558;2022-09-09T17:33:28;1.23;;;1.13;;
41865;SDS011;27539;43.222;27.558;2022-09-09T17:35:58;0.95;;;0.77;;
41865;SDS011;27539;43.222;27.558;2022-09-09T17:38:26;0.50;;;0.50;;
41865;SDS011;27539;43.222;27.558;2022-09-09T17:43:39;1.20;;;1.10;;
41865;SDS011;27539;43.222;27.558;2022-09-09T17:46:06;1.05;;;0.95;;
41865;SDS011;27539;43.222;27.558;2022-09-09T17:48:33;0.20;;;0.20;;
41865;SDS011;27539;43.222;27.558;2022-09-09T17:50:59;0.17;;;0.17;;
41865;SDS011;27539;43.222;27.558;2022-09-09T17:53:25;19.07;;;1.50;;
41865;SDS011;27539;43.222;27.558;2022-09-09T17:55:51;0.40;;;0.40;;
41865;SDS011;27539;43.222;27.558;2022-09-09T17:58:17;2.47;;;0.63;;
41865;SDS011;27539;43.222;27.558;2022-09-09T18:00:42;0.40;;;0.33;;
41865;SDS011;27539;43.222;27.558;2022-09-09T18:03:08;2.00;;;0.93;;
41865;SDS011;27539;43.222;27.558;2022-09-09T18:05:34;0.20;;;0.20;;
41865;SDS011;27539;43.222;27.558;2022-09-09T18:07:59;1.13;;;0.40;;
41865;SDS011;27539;43.222;27.558;2022-09-09T18:10:25;0.20;;;0.20;;
41865;SDS011;27539;43.222;27.558;2022-09-09T18:12:50;0.20;;;0.20;;
41865;SDS011;27539;43.222;27.558;2022-09-09T18:15:16;0.50;;;0.50;;
41865;SDS011;27539;43.222;27.558;2022-09-09T18:17:42;0.63;;;0.50;;
41865;SDS011;27539;43.222;27.558;2022-09-09T18:20:08;0.40;;;0.40;;
41865;SDS011;27539;43.222;27.558;2022-09-09T18:22:35;0.63;;;0.63;;
41865;SDS011;27539;43.222;27.558;2022-09-09T18:25:00;0.57;;;0.40;;
41865;SDS011;27539;43.222;27.558;2022-09-09T18:27:26;0.60;;;0.60;;
41865;SDS011;27539;43.222;27.558;2022-09-09T18:29:53;1.38;;;0.45;;
41865;SDS011;27539;43.222;27.558;2022-09-09T18:32:18;0.20;;;0.20;;
41865;SDS011;27539;43.222;27.558;2022-09-09T18:34:44;0.35;;;0.30;;
41865;SDS011;27539;43.222;27.558;2022-09-09T18:37:09;1.17;;;0.90;;
41865;SDS011;27539;43.222;27.558;2022-09-09T18:39:35;0.50;;;0.50;;
41865;SDS011;27539;43.222;27.558;2022-09-09T18:42:00;0.17;;;0.17;;
41865;SDS011;27539;43.222;27.558;2022-09-09T18:44:30;0.30;;;0.30;;
41865;SDS011;27539;43.222;27.558;2022-09-09T18:46:57;0.47;;;0.47;;
41865;SDS011;27539;43.222;27.558;2022-09-09T18:49:24;0.30;;;0.30;;
41865;SDS011;27539;43.222;27.558;2022-09-09T18:51:50;0.17;;;0.17;;
41865;SDS011;27539;43.222;27.558;2022-09-09T18:54:17;0.30;;;0.30;;
41865;SDS011;27539;43.222;27.558;2022-09-09T18:56:47;0.40;;;0.40;;
41865;SDS011;27539;43.222;27.558;2022-09-09T18:59:14;0.43;;;0.30;;
41865;SDS011;27539;43.222;27.558;2022-09-09T19:01:43;0.40;;;0.40;;
41865;SDS011;27539;43.222;27.558;2022-09-09T19:04:10;0.40;;;0.40;;
41865;SDS011;27539;43.222;27.558;2022-09-09T19:06:38;0.27;;;0.27;;
41865;SDS011;27539;43.222;27.558;2022-09-09T19:09:08;0.47;;;0.20;;
41865;SDS011;27539;43.222;27.558;2022-09-09T19:11:35;0.20;;;0.20;;
41865;SDS011;27539;43.222;27.558;2022-09-09T19:14:02;0.67;;;0.63;;
41865;SDS011;27539;43.222;27.558;2022-09-09T19:16:30;0.68;;;0.35;;
41865;SDS011;27539;43.222;27.558;2022-09-09T19:18:58;2.55;;;1.27;;
41865;SDS011;27539;43.222;27.558;2022-09-09T19:21:30;0.98;;;0.65;;
41865;SDS011;27539;43.222;27.558;2022-09-09T19:26:31;0.30;;;0.30;;
41865;SDS011;27539;43.222;27.558;2022-09-09T19:29:01;0.55;;;0.50;;
41865;SDS011;27539;43.222;27.558;2022-09-09T19:31:27;0.30;;;0.30;;
41865;SDS011;27539;43.222;27.558;2022-09-09T19:33:55;0.10;;;0.10;;
41865;SDS011;27539;43.222;27.558;2022-09-09T19:36:21;0.47;;;0.47;;
41865;SDS011;27539;43.222;27.558;2022-09-09T19:38:48;1.38;;;0.68;;
41865;SDS011;27539;43.222;27.558;2022-09-09T19:41:15;0.40;;;0.40;;
41865;SDS011;27539;43.222;27.558;2022-09-09T19:43:43;1.00;;;0.60;;
41865;SDS011;27539;43.222;27.558;2022-09-09T19:46:10;0.50;;;0.50;;
41865;SDS011;27539;43.222;27.558;2022-09-09T19:48:37;0.52;;;0.52;;
41865;SDS011;27539;43.222;27.558;2022-09-09T19:51:14;0.40;;;0.40;;
41865;SDS011;27539;43.222;27.558;2022-09-09T19:53:45;4.68;;;0.82;;
41865;SDS011;27539;43.222;27.558;2022-09-09T19:56:13;0.20;;;0.20;;
41865;SDS011;27539;43.222;27.558;2022-09-09T19:58:39;0.75;;;0.22;;
41865;SDS011;27539;43.222;27.558;2022-09-09T20:01:09;0.30;;;0.30;;
41865;SDS011;27539;43.222;27.558;2022-09-09T20:03:35;0.73;;;0.55;;
41865;SDS011;27539;43.222;27.558;2022-09-09T20:06:02;1.05;;;0.95;;
41865;SDS011;27539;43.222;27.558;2022-09-09T20:08:29;0.25;;;0.25;;
41865;SDS011;27539;43.222;27.558;2022-09-09T20:10:55;0.70;;;0.47;;
41865;SDS011;27539;43.222;27.558;2022-09-09T20:13:21;1.03;;;0.70;;
41865;SDS011;27539;43.222;27.558;2022-09-09T20:16:03;1.65;;;1.02;;
41865;SDS011;27539;43.222;27.558;2022-09-09T20:18:30;0.47;;;0.47;;
41865;SDS011;27539;43.222;27.558;2022-09-09T20:20:58;0.28;;;0.28;;
41865;SDS011;27539;43.222;27.558;2022-09-09T20:23:25;0.68;;;0.60;;
41865;SDS011;27539;43.222;27.558;2022-09-09T20:25:52;0.50;;;0.50;;
41865;SDS011;27539;43.222;27.558;2022-09-09T20:28:17;0.20;;;0.20;;
41865;SDS011;27539;43.222;27.558;2022-09-09T20:30:45;0.20;;;0.20;;
41865;SDS011;27539;43.222;27.558;2022-09-09T20:33:11;2.10;;;0.50;;
41865;SDS011;27539;43.222;27.558;2022-09-09T20:38:04;0.43;;;0.43;;
41865;SDS011;27539;43.222;27.558;2022-09-09T20:40:29;0.10;;;0.10;;
41865;SDS011;27539;43.222;27.558;2022-09-09T20:42:56;0.40;;;0.40;;
41865;SDS011;27539;43.222;27.558;2022-09-09T20:45:21;0.13;;;0.13;;
41865;SDS011;27539;43.222;27.558;2022-09-09T20:47:48;0.52;;;0.47;;
41865;SDS011;27539;43.222;27.558;2022-09-09T20:50:14;0.20;;;0.20;;
41865;SDS011;27539;43.222;27.558;2022-09-09T20:52:40;0.52;;;0.38;;
41865;SDS011;27539;43.222;27.558;2022-09-09T20:55:06;0.47;;;0.47;;
41865;SDS011;27539;43.222;27.558;2022-09-09T20:57:31;0.22;;;0.22;;
41865;SDS011;27539;43.222;27.558;2022-09-09T20:59:57;3.42;;;0.43;;
41865;SDS011;27539;43.222;27.558;2022-09-09T21:02:22;0.20;;;0.20;;
41865;SDS011;27539;43.222;27.558;2022-09-09T21:04:48;0.10;;;0.10;;
41865;SDS011;27539;43.222;27.558;2022-09-09T21:07:13;12.18;;;1.35;;
41865;SDS011;27539;43.222;27.558;2022-09-09T21:09:39;1.73;;;0.82;;
41865;SDS011;27539;43.222;27.558;2022-09-09T21:12:05;0.95;;;0.60;;
41865;SDS011;27539;43.222;27.558;2022-09-09T21:14:31;0.30;;;0.30;;
41865;SDS011;27539;43.222;27.558;2022-09-09T21:16:57;0.43;;;0.43;;
41865;SDS011;27539;43.222;27.558;2022-09-09T21:19:22;0.32;;;0.28;;
41865;SDS011;27539;43.222;27.558;2022-09-09T21:21:49;0.43;;;0.43;;
41865;SDS011;27539;43.222;27.558;2022-09-09T21:24:14;0.20;;;0.20;;
41865;SDS011;27539;43.222;27.558;2022-09-09T21:26:40;0.20;;;0.20;;
41865;SDS011;27539;43.222;27.558;2022-09-09T21:29:06;0.20;;;0.20;;
41865;SDS011;27539;43.222;27.558;2022-09-09T21:31:32;0.75;;;0.20;;
41865;SDS011;27539;43.222;27.558;2022-09-09T21:33:57;1.90;;;0.98;;
41865;SDS011;27539;43.222;27.558;2022-09-09T21:36:23;1.35;;;0.43;;
41865;SDS011;27539;43.222;27.558;2022-09-09T21:38:52;0.43;;;0.43;;
41865;SDS011;27539;43.222;27.558;2022-09-09T21:41:17;0.47;;;0.47;;
41865;SDS011;27539;43.222;27.558;2022-09-09T21:43:44;0.45;;;0.45;;
41865;SDS011;27539;43.222;27.558;2022-09-09T21:46:14;0.17;;;0.17;;
41865;SDS011;27539;43.222;27.558;2022-09-09T21:48:41;0.43;;;0.43;;
41865;SDS011;27539;43.222;27.558;2022-09-09T21:51:08;0.10;;;0.10;;
41865;SDS011;27539;43.222;27.558;2022-09-09T21:53:35;0.10;;;0.10;;
41865;SDS011;27539;43.222;27.558;2022-09-09T21:56:03;0.63;;;0.50;;
41865;SDS011;27539;43.222;27.558;2022-09-09T21:58:34;0.80;;;0.80;;
41865;SDS011;27539;43.222;27.558;2022-09-09T22:01:00;0.13;;;0.10;;
41865;SDS011;27539;43.222;27.558;2022-09-09T22:03:26;0.82;;;0.60;;
41865;SDS011;27539;43.222;27.558;2022-09-09T22:05:52;0.55;;;0.15;;
41865;SDS011;27539;43.222;27.558;2022-09-09T22:08:17;0.52;;;0.52;;